sensor_id;sensor_type;location;lat;lon;timestamp;P1;durP1;ratioP1;P2;durP2;ratioP2
13204;SDS011;6667;52.634;9.226;2023-04-16T00:01:44;22.93;;;15.97;;
13204;SDS011;6667;52.634;9.226;2023-04-16T00:04:10;22.20;;;14.27;;
13204;SDS011;6667;52.634;9.226;2023-04-16T00:06:38;21.83;;;15.03;;
13204;SDS011;6667;52.634;9.226;2023-04-16T00:09:05;21.60;;;15.60;;
13204;SDS011;6667;52.634;9.226;2023-04-16T00:11:31;22.20;;;15.73;;
13204;SDS011;6667;52.634;9.226;2023-04-16T00:13:58;19.23;;;15.37;;
13204;SDS011;6667;52.634;9.226;2023-04-16T00:16:25;21.80;;;16.13;;
13204;SDS011;6667;52.634;9.226;2023-04-16T00:18:52;22.63;;;14.57;;
13204;SDS011;6667;52.634;9.226;2023-04-16T00:21:18;24.23;;;15.37;;
13204;SDS011;6667;52.634;9.226;2023-04-16T00:23:46;23.33;;;14.67;;
13204;SDS011;6667;52.634;9.226;2023-04-16T00:26:13;23.43;;;15.07;;
13204;SDS011;6667;52.634;9.226;2023-04-16T00:28:40;21.27;;;14.47;;
13204;SDS011;6667;52.634;9.226;2023-04-16T00:31:06;21.13;;;14.27;;
13204;SDS011;6667;52.634;9.226;2023-04-16T00:33:33;21.70;;;14.97;;
13204;SDS011;6667;52.634;9.226;2023-04-16T00:35:59;24.87;;;14.80;;
13204;SDS011;6667;52.634;9.226;2023-04-16T00:38:26;19.53;;;13.83;;
13204;SDS011;6667;52.634;9.226;2023-04-16T00:40:55;22.43;;;13.90;;
13204;SDS011;6667;52.634;9.226;2023-04-16T00:43:23;28.03;;;14.60;;
13204;SDS011;6667;52.634;9.226;2023-04-16T00:45:50;21.07;;;14.10;;
13204;SDS011;6667;52.634;9.226;2023-04-16T00:48:18;22.60;;;14.17;;
13204;SDS011;6667;52.634;9.226;2023-04-16T00:50:45;19.03;;;13.10;;
13204;SDS011;6667;52.634;9.226;2023-04-16T00:53:12;19.67;;;13.83;;
13204;SDS011;6667;52.634;9.226;2023-04-16T00:55:39;20.97;;;15.03;;
13204;SDS011;6667;52.634;9.226;2023-04-16T00:58:07;21.83;;;14.53;;
13204;SDS011;6667;52.634;9.226;2023-04-16T01:00:33;21.90;;;14.03;;
13204;SDS011;6667;52.634;9.226;2023-04-16T01:03:00;22.23;;;14.77;;
13204;SDS011;6667;52.634;9.226;2023-04-16T01:05:27;20.23;;;13.87;;
13204;SDS011;6667;52.634;9.226;2023-04-16T01:07:56;23.33;;;13.90;;
13204;SDS011;6667;52.634;9.226;2023-04-16T01:10:23;20.00;;;14.43;;
13204;SDS011;6667;52.634;9.226;2023-04-16T01:12:50;24.77;;;15.00;;
13204;SDS011;6667;52.634;9.226;2023-04-16T01:15:18;22.63;;;15.57;;
13204;SDS011;6667;52.634;9.226;2023-04-16T01:17:44;23.87;;;15.27;;
13204;SDS011;6667;52.634;9.226;2023-04-16T01:20:11;21.10;;;14.33;;
13204;SDS011;6667;52.634;9.226;2023-04-16T01:22:39;24.13;;;15.40;;
13204;SDS011;6667;52.634;9.226;2023-04-16T01:25:06;21.37;;;13.90;;
13204;SDS011;6667;52.634;9.226;2023-04-16T01:27:33;20.40;;;13.77;;
13204;SDS011;6667;52.634;9.226;2023-04-16T01:30:01;20.73;;;14.77;;
13204;SDS011;6667;52.634;9.226;2023-04-16T01:32:30;22.70;;;14.73;;
13204;SDS011;6667;52.634;9.226;2023-04-16T01:34:57;28.93;;;16.03;;
13204;SDS011;6667;52.634;9.226;2023-04-16T01:37:23;29.53;;;15.37;;
13204;SDS011;6667;52.634;9.226;2023-04-16T01:39:51;23.40;;;14.40;;
13204;SDS011;6667;52.634;9.226;2023-04-16T01:42:18;19.50;;;14.60;;
13204;SDS011;6667;52.634;9.226;2023-04-16T01:44:45;23.13;;;15.13;;
13204;SDS011;6667;52.634;9.226;2023-04-16T01:47:12;23.17;;;14.53;;
13204;SDS011;6667;52.634;9.226;2023-04-16T01:49:39;22.77;;;14.37;;
13204;SDS011;6667;52.634;9.226;2023-04-16T01:52:06;21.07;;;14.17;;
13204;SDS011;6667;52.634;9.226;2023-04-16T01:54:33;26.17;;;14.90;;
13204;SDS011;6667;52.634;9.226;2023-04-16T01:57:01;19.47;;;13.77;;
13204;SDS011;6667;52.634;9.226;2023-04-16T01:59:27;24.47;;;14.83;;
13204;SDS011;6667;52.634;9.226;2023-04-16T02:01:54;24.17;;;15.30;;
13204;SDS011;6667;52.634;9.226;2023-04-16T02:04:20;23.77;;;14.57;;
13204;SDS011;6667;52.634;9.226;2023-04-16T02:06:47;24.43;;;15.23;;
13204;SDS011;6667;52.634;9.226;2023-04-16T02:09:14;21.83;;;14.60;;
13204;SDS011;6667;52.634;9.226;2023-04-16T02:11:40;23.93;;;14.47;;
13204;SDS011;6667;52.634;9.226;2023-04-16T02:14:08;24.70;;;14.93;;
13204;SDS011;6667;52.634;9.226;2023-04-16T02:16:35;23.07;;;15.57;;
13204;SDS011;6667;52.634;9.226;2023-04-16T02:19:01;19.97;;;14.47;;
13204;SDS011;6667;52.634;9.226;2023-04-16T02:21:28;22.50;;;14.10;;
13204;SDS011;6667;52.634;9.226;2023-04-16T02:23:55;18.70;;;14.23;;
13204;SDS011;6667;52.634;9.226;2023-04-16T02:26:22;21.63;;;14.30;;
13204;SDS011;6667;52.634;9.226;2023-04-16T02:28:50;22.70;;;14.23;;
13204;SDS011;6667;52.634;9.226;2023-04-16T02:31:18;21.43;;;15.63;;
13204;SDS011;6667;52.634;9.226;2023-04-16T02:33:46;25.77;;;15.33;;
13204;SDS011;6667;52.634;9.226;2023-04-16T02:36:12;24.93;;;15.37;;
13204;SDS011;6667;52.634;9.226;2023-04-16T02:38:39;21.87;;;15.57;;
13204;SDS011;6667;52.634;9.226;2023-04-16T02:41:06;22.77;;;15.53;;
13204;SDS011;6667;52.634;9.226;2023-04-16T02:43:32;23.37;;;15.80;;
13204;SDS011;6667;52.634;9.226;2023-04-16T02:45:59;24.43;;;15.33;;
13204;SDS011;6667;52.634;9.226;2023-04-16T02:48:27;26.23;;;16.87;;
13204;SDS011;6667;52.634;9.226;2023-04-16T02:50:53;28.33;;;15.97;;
13204;SDS011;6667;52.634;9.226;2023-04-16T02:53:20;28.43;;;17.50;;
13204;SDS011;6667;52.634;9.226;2023-04-16T02:55:49;23.83;;;15.73;;
13204;SDS011;6667;52.634;9.226;2023-04-16T02:58:17;24.40;;;16.17;;
13204;SDS011;6667;52.634;9.226;2023-04-16T03:00:44;22.97;;;16.47;;
13204;SDS011;6667;52.634;9.226;2023-04-16T03:03:11;27.37;;;17.63;;
13204;SDS011;6667;52.634;9.226;2023-04-16T03:05:39;25.60;;;17.30;;
13204;SDS011;6667;52.634;9.226;2023-04-16T03:08:06;23.77;;;16.73;;
13204;SDS011;6667;52.634;9.226;2023-04-16T03:10:32;26.87;;;17.97;;
13204;SDS011;6667;52.634;9.226;2023-04-16T03:13:00;21.73;;;15.43;;
13204;SDS011;6667;52.634;9.226;2023-04-16T03:15:27;29.33;;;17.67;;
13204;SDS011;6667;52.634;9.226;2023-04-16T03:17:54;25.33;;;16.90;;
13204;SDS011;6667;52.634;9.226;2023-04-16T03:20:21;25.27;;;17.03;;
13204;SDS011;6667;52.634;9.226;2023-04-16T03:22:49;28.40;;;18.07;;
13204;SDS011;6667;52.634;9.226;2023-04-16T03:25:16;31.23;;;18.47;;
13204;SDS011;6667;52.634;9.226;2023-04-16T03:27:43;27.57;;;17.93;;
13204;SDS011;6667;52.634;9.226;2023-04-16T03:30:10;29.73;;;18.77;;
13204;SDS011;6667;52.634;9.226;2023-04-16T03:32:37;26.47;;;17.30;;
13204;SDS011;6667;52.634;9.226;2023-04-16T03:35:04;31.80;;;19.70;;
13204;SDS011;6667;52.634;9.226;2023-04-16T03:37:32;33.33;;;18.60;;
13204;SDS011;6667;52.634;9.226;2023-04-16T03:40:00;33.03;;;18.30;;
13204;SDS011;6667;52.634;9.226;2023-04-16T03:42:27;28.97;;;19.03;;
13204;SDS011;6667;52.634;9.226;2023-04-16T03:44:54;28.13;;;18.17;;
13204;SDS011;6667;52.634;9.226;2023-04-16T03:47:21;27.47;;;17.90;;
13204;SDS011;6667;52.634;9.226;2023-04-16T03:49:48;28.17;;;17.93;;
13204;SDS011;6667;52.634;9.226;2023-04-16T03:52:14;28.90;;;18.27;;
13204;SDS011;6667;52.634;9.226;2023-04-16T03:54:41;28.53;;;18.10;;
13204;SDS011;6667;52.634;9.226;2023-04-16T03:57:09;27.07;;;17.40;;
13204;SDS011;6667;52.634;9.226;2023-04-16T03:59:36;24.83;;;17.33;;
13204;SDS011;6667;52.634;9.226;2023-04-16T04:02:02;31.60;;;18.37;;
13204;SDS011;6667;52.634;9.226;2023-04-16T04:04:29;26.90;;;16.57;;
13204;SDS011;6667;52.634;9.226;2023-04-16T04:06:55;26.03;;;17.07;;
13204;SDS011;6667;52.634;9.226;2023-04-16T04:09:22;33.50;;;17.70;;
13204;SDS011;6667;52.634;9.226;2023-04-16T04:11:49;28.60;;;17.90;;
13204;SDS011;6667;52.634;9.226;2023-04-16T04:14:17;30.13;;;17.57;;
13204;SDS011;6667;52.634;9.226;2023-04-16T04:16:43;26.00;;;16.10;;
13204;SDS011;6667;52.634;9.226;2023-04-16T04:19:10;26.83;;;18.27;;
13204;SDS011;6667;52.634;9.226;2023-04-16T04:21:37;24.83;;;16.67;;
13204;SDS011;6667;52.634;9.226;2023-04-16T04:24:03;25.90;;;17.43;;
13204;SDS011;6667;52.634;9.226;2023-04-16T04:26:30;29.37;;;17.03;;
13204;SDS011;6667;52.634;9.226;2023-04-16T04:28:57;29.73;;;16.47;;
13204;SDS011;6667;52.634;9.226;2023-04-16T04:31:24;27.33;;;15.70;;
13204;SDS011;6667;52.634;9.226;2023-04-16T04:33:51;27.47;;;17.77;;
13204;SDS011;6667;52.634;9.226;2023-04-16T04:36:18;24.70;;;16.63;;
13204;SDS011;6667;52.634;9.226;2023-04-16T04:38:45;25.43;;;17.07;;
13204;SDS011;6667;52.634;9.226;2023-04-16T04:41:11;23.93;;;16.70;;
13204;SDS011;6667;52.634;9.226;2023-04-16T04:43:38;29.07;;;16.67;;
13204;SDS011;6667;52.634;9.226;2023-04-16T04:46:04;23.93;;;16.57;;
13204;SDS011;6667;52.634;9.226;2023-04-16T04:48:32;25.60;;;16.60;;
13204;SDS011;6667;52.634;9.226;2023-04-16T04:50:59;24.80;;;16.73;;
13204;SDS011;6667;52.634;9.226;2023-04-16T04:53:28;20.93;;;15.13;;
13204;SDS011;6667;52.634;9.226;2023-04-16T04:55:54;23.40;;;15.00;;
13204;SDS011;6667;52.634;9.226;2023-04-16T04:58:21;22.10;;;15.70;;
13204;SDS011;6667;52.634;9.226;2023-04-16T05:00:48;25.13;;;16.03;;
13204;SDS011;6667;52.634;9.226;2023-04-16T05:03:18;24.53;;;15.90;;
13204;SDS011;6667;52.634;9.226;2023-04-16T05:05:47;24.07;;;15.33;;
13204;SDS011;6667;52.634;9.226;2023-04-16T05:08:14;26.33;;;16.00;;
13204;SDS011;6667;52.634;9.226;2023-04-16T05:10:40;26.67;;;16.40;;
13204;SDS011;6667;52.634;9.226;2023-04-16T05:13:07;23.47;;;15.17;;
13204;SDS011;6667;52.634;9.226;2023-04-16T05:15:33;27.10;;;16.67;;
13204;SDS011;6667;52.634;9.226;2023-04-16T05:18:00;24.93;;;16.10;;
13204;SDS011;6667;52.634;9.226;2023-04-16T05:20:26;24.50;;;16.17;;
13204;SDS011;6667;52.634;9.226;2023-04-16T05:22:54;27.13;;;16.87;;
13204;SDS011;6667;52.634;9.226;2023-04-16T05:25:21;24.50;;;15.47;;
13204;SDS011;6667;52.634;9.226;2023-04-16T05:27:48;26.70;;;16.53;;
13204;SDS011;6667;52.634;9.226;2023-04-16T05:30:14;25.37;;;15.40;;
13204;SDS011;6667;52.634;9.226;2023-04-16T05:32:41;22.93;;;16.07;;
13204;SDS011;6667;52.634;9.226;2023-04-16T05:35:08;28.10;;;17.27;;
13204;SDS011;6667;52.634;9.226;2023-04-16T05:37:35;25.50;;;16.87;;
13204;SDS011;6667;52.634;9.226;2023-04-16T05:40:03;25.20;;;16.50;;
13204;SDS011;6667;52.634;9.226;2023-04-16T05:42:30;22.93;;;15.37;;
13204;SDS011;6667;52.634;9.226;2023-04-16T05:44:57;25.60;;;16.33;;
13204;SDS011;6667;52.634;9.226;2023-04-16T05:47:23;25.70;;;16.87;;
13204;SDS011;6667;52.634;9.226;2023-04-16T05:49:50;26.93;;;16.07;;
13204;SDS011;6667;52.634;9.226;2023-04-16T05:52:16;26.07;;;18.07;;
13204;SDS011;6667;52.634;9.226;2023-04-16T05:54:43;24.47;;;17.83;;
13204;SDS011;6667;52.634;9.226;2023-04-16T05:57:11;27.77;;;16.90;;
13204;SDS011;6667;52.634;9.226;2023-04-16T05:59:38;25.93;;;17.17;;
13204;SDS011;6667;52.634;9.226;2023-04-16T06:02:05;28.43;;;17.63;;
13204;SDS011;6667;52.634;9.226;2023-04-16T06:04:32;27.33;;;16.57;;
13204;SDS011;6667;52.634;9.226;2023-04-16T06:06:59;25.03;;;16.73;;
13204;SDS011;6667;52.634;9.226;2023-04-16T06:09:26;24.47;;;16.67;;
13204;SDS011;6667;52.634;9.226;2023-04-16T06:11:53;27.60;;;18.20;;
13204;SDS011;6667;52.634;9.226;2023-04-16T06:14:20;24.87;;;16.87;;
13204;SDS011;6667;52.634;9.226;2023-04-16T06:16:47;27.33;;;17.43;;
13204;SDS011;6667;52.634;9.226;2023-04-16T06:19:14;24.80;;;16.90;;
13204;SDS011;6667;52.634;9.226;2023-04-16T06:21:40;29.97;;;18.33;;
13204;SDS011;6667;52.634;9.226;2023-04-16T06:24:07;27.30;;;17.63;;
13204;SDS011;6667;52.634;9.226;2023-04-16T06:26:34;24.33;;;17.23;;
13204;SDS011;6667;52.634;9.226;2023-04-16T06:29:01;23.83;;;16.87;;
13204;SDS011;6667;52.634;9.226;2023-04-16T06:31:29;25.77;;;16.10;;
13204;SDS011;6667;52.634;9.226;2023-04-16T06:33:56;25.93;;;16.00;;
13204;SDS011;6667;52.634;9.226;2023-04-16T06:36:22;25.27;;;16.23;;
13204;SDS011;6667;52.634;9.226;2023-04-16T06:38:51;27.53;;;16.90;;
13204;SDS011;6667;52.634;9.226;2023-04-16T06:41:17;25.00;;;16.23;;
13204;SDS011;6667;52.634;9.226;2023-04-16T06:43:44;23.43;;;15.70;;
13204;SDS011;6667;52.634;9.226;2023-04-16T06:46:11;24.83;;;16.17;;
13204;SDS011;6667;52.634;9.226;2023-04-16T06:48:38;23.67;;;16.10;;
13204;SDS011;6667;52.634;9.226;2023-04-16T06:51:05;24.80;;;15.83;;
13204;SDS011;6667;52.634;9.226;2023-04-16T06:53:32;25.63;;;15.57;;
13204;SDS011;6667;52.634;9.226;2023-04-16T06:55:58;27.20;;;16.50;;
13204;SDS011;6667;52.634;9.226;2023-04-16T06:58:25;25.63;;;16.90;;
13204;SDS011;6667;52.634;9.226;2023-04-16T07:00:52;22.60;;;15.80;;
13204;SDS011;6667;52.634;9.226;2023-04-16T07:03:18;25.77;;;16.17;;
13204;SDS011;6667;52.634;9.226;2023-04-16T07:05:46;24.00;;;15.43;;
13204;SDS011;6667;52.634;9.226;2023-04-16T07:08:13;22.87;;;15.13;;
13204;SDS011;6667;52.634;9.226;2023-04-16T07:10:40;22.57;;;14.70;;
13204;SDS011;6667;52.634;9.226;2023-04-16T07:13:07;27.57;;;16.20;;
13204;SDS011;6667;52.634;9.226;2023-04-16T07:15:33;22.87;;;13.67;;
13204;SDS011;6667;52.634;9.226;2023-04-16T07:18:00;21.17;;;14.47;;
13204;SDS011;6667;52.634;9.226;2023-04-16T07:20:27;26.03;;;16.37;;
13204;SDS011;6667;52.634;9.226;2023-04-16T07:22:55;24.43;;;15.30;;
13204;SDS011;6667;52.634;9.226;2023-04-16T07:25:23;24.20;;;15.43;;
13204;SDS011;6667;52.634;9.226;2023-04-16T07:27:50;21.20;;;14.43;;
13204;SDS011;6667;52.634;9.226;2023-04-16T07:30:17;22.33;;;14.13;;
13204;SDS011;6667;52.634;9.226;2023-04-16T07:32:44;21.77;;;14.67;;
13204;SDS011;6667;52.634;9.226;2023-04-16T07:35:10;23.60;;;15.70;;
13204;SDS011;6667;52.634;9.226;2023-04-16T07:37:37;20.77;;;15.13;;
13204;SDS011;6667;52.634;9.226;2023-04-16T07:40:06;27.33;;;15.13;;
13204;SDS011;6667;52.634;9.226;2023-04-16T07:42:34;22.57;;;14.23;;
13204;SDS011;6667;52.634;9.226;2023-04-16T07:45:00;23.43;;;15.00;;
13204;SDS011;6667;52.634;9.226;2023-04-16T07:47:27;23.47;;;13.60;;
13204;SDS011;6667;52.634;9.226;2023-04-16T07:49:54;22.43;;;14.37;;
13204;SDS011;6667;52.634;9.226;2023-04-16T07:52:20;23.00;;;15.10;;
13204;SDS011;6667;52.634;9.226;2023-04-16T07:54:47;21.13;;;14.37;;
13204;SDS011;6667;52.634;9.226;2023-04-16T07:57:17;23.47;;;14.97;;
13204;SDS011;6667;52.634;9.226;2023-04-16T07:59:43;21.30;;;13.80;;
13204;SDS011;6667;52.634;9.226;2023-04-16T08:02:11;22.63;;;14.17;;
13204;SDS011;6667;52.634;9.226;2023-04-16T08:04:40;22.23;;;13.33;;
13204;SDS011;6667;52.634;9.226;2023-04-16T08:07:07;23.40;;;14.03;;
13204;SDS011;6667;52.634;9.226;2023-04-16T08:09:34;23.93;;;14.87;;
13204;SDS011;6667;52.634;9.226;2023-04-16T08:12:01;20.77;;;14.03;;
13204;SDS011;6667;52.634;9.226;2023-04-16T08:14:30;25.80;;;15.07;;
13204;SDS011;6667;52.634;9.226;2023-04-16T08:16:56;22.70;;;14.40;;
13204;SDS011;6667;52.634;9.226;2023-04-16T08:19:23;23.50;;;14.57;;
13204;SDS011;6667;52.634;9.226;2023-04-16T08:21:49;21.40;;;14.40;;
13204;SDS011;6667;52.634;9.226;2023-04-16T08:24:16;22.73;;;14.57;;
13204;SDS011;6667;52.634;9.226;2023-04-16T08:26:43;20.70;;;14.03;;
13204;SDS011;6667;52.634;9.226;2023-04-16T08:29:09;23.50;;;13.63;;
13204;SDS011;6667;52.634;9.226;2023-04-16T08:31:37;19.63;;;12.73;;
13204;SDS011;6667;52.634;9.226;2023-04-16T08:34:04;26.53;;;15.00;;
13204;SDS011;6667;52.634;9.226;2023-04-16T08:36:31;19.73;;;13.53;;
13204;SDS011;6667;52.634;9.226;2023-04-16T08:38:57;20.37;;;14.63;;
13204;SDS011;6667;52.634;9.226;2023-04-16T08:41:24;23.67;;;14.37;;
13204;SDS011;6667;52.634;9.226;2023-04-16T08:43:55;19.83;;;12.80;;
13204;SDS011;6667;52.634;9.226;2023-04-16T08:46:25;20.10;;;13.37;;
13204;SDS011;6667;52.634;9.226;2023-04-16T08:48:55;24.67;;;14.80;;
13204;SDS011;6667;52.634;9.226;2023-04-16T08:51:24;23.50;;;15.10;;
13204;SDS011;6667;52.634;9.226;2023-04-16T08:54:01;24.43;;;14.07;;
13204;SDS011;6667;52.634;9.226;2023-04-16T08:56:30;25.33;;;14.17;;
13204;SDS011;6667;52.634;9.226;2023-04-16T08:59:00;22.47;;;14.30;;
13204;SDS011;6667;52.634;9.226;2023-04-16T09:01:29;20.23;;;13.43;;
13204;SDS011;6667;52.634;9.226;2023-04-16T09:03:59;23.47;;;14.00;;
13204;SDS011;6667;52.634;9.226;2023-04-16T09:06:26;24.60;;;14.60;;
13204;SDS011;6667;52.634;9.226;2023-04-16T09:08:53;22.53;;;13.87;;
13204;SDS011;6667;52.634;9.226;2023-04-16T09:11:22;20.23;;;12.53;;
13204;SDS011;6667;52.634;9.226;2023-04-16T09:13:50;20.83;;;13.50;;
13204;SDS011;6667;52.634;9.226;2023-04-16T09:16:17;22.73;;;14.10;;
13204;SDS011;6667;52.634;9.226;2023-04-16T09:18:46;20.50;;;13.60;;
13204;SDS011;6667;52.634;9.226;2023-04-16T09:21:14;18.97;;;13.13;;
13204;SDS011;6667;52.634;9.226;2023-04-16T09:23:40;24.40;;;13.70;;
13204;SDS011;6667;52.634;9.226;2023-04-16T09:26:07;19.53;;;12.90;;
13204;SDS011;6667;52.634;9.226;2023-04-16T09:28:40;19.87;;;13.83;;
13204;SDS011;6667;52.634;9.226;2023-04-16T09:31:08;21.60;;;14.13;;
13204;SDS011;6667;52.634;9.226;2023-04-16T09:33:36;22.80;;;13.63;;
13204;SDS011;6667;52.634;9.226;2023-04-16T09:36:04;21.30;;;13.83;;
13204;SDS011;6667;52.634;9.226;2023-04-16T09:38:46;18.07;;;12.60;;
13204;SDS011;6667;52.634;9.226;2023-04-16T09:41:13;21.10;;;14.47;;
13204;SDS011;6667;52.634;9.226;2023-04-16T09:43:48;22.87;;;13.87;;
13204;SDS011;6667;52.634;9.226;2023-04-16T09:46:19;23.87;;;13.70;;
13204;SDS011;6667;52.634;9.226;2023-04-16T09:48:46;18.37;;;12.70;;
13204;SDS011;6667;52.634;9.226;2023-04-16T09:51:14;23.10;;;13.47;;
13204;SDS011;6667;52.634;9.226;2023-04-16T09:53:41;20.00;;;12.73;;
13204;SDS011;6667;52.634;9.226;2023-04-16T09:56:10;20.67;;;13.10;;
13204;SDS011;6667;52.634;9.226;2023-04-16T09:58:37;20.43;;;13.80;;
13204;SDS011;6667;52.634;9.226;2023-04-16T10:01:06;20.07;;;13.80;;
13204;SDS011;6667;52.634;9.226;2023-04-16T10:03:35;20.30;;;13.20;;
13204;SDS011;6667;52.634;9.226;2023-04-16T10:06:06;21.20;;;14.23;;
13204;SDS011;6667;52.634;9.226;2023-04-16T10:08:34;18.83;;;13.27;;
13204;SDS011;6667;52.634;9.226;2023-04-16T10:11:01;21.80;;;14.13;;
13204;SDS011;6667;52.634;9.226;2023-04-16T10:13:30;22.80;;;14.50;;
13204;SDS011;6667;52.634;9.226;2023-04-16T10:15:57;19.60;;;13.70;;
13204;SDS011;6667;52.634;9.226;2023-04-16T10:18:24;22.20;;;13.43;;
13204;SDS011;6667;52.634;9.226;2023-04-16T10:20:52;19.10;;;13.57;;
13204;SDS011;6667;52.634;9.226;2023-04-16T10:23:20;20.43;;;13.50;;
13204;SDS011;6667;52.634;9.226;2023-04-16T10:25:47;20.07;;;13.43;;
13204;SDS011;6667;52.634;9.226;2023-04-16T10:28:15;22.07;;;13.67;;
13204;SDS011;6667;52.634;9.226;2023-04-16T10:30:44;21.43;;;14.07;;
13204;SDS011;6667;52.634;9.226;2023-04-16T10:33:17;20.13;;;13.40;;
13204;SDS011;6667;52.634;9.226;2023-04-16T10:35:48;23.33;;;13.70;;
13204;SDS011;6667;52.634;9.226;2023-04-16T10:38:23;22.30;;;13.73;;
13204;SDS011;6667;52.634;9.226;2023-04-16T10:40:57;23.07;;;14.03;;
13204;SDS011;6667;52.634;9.226;2023-04-16T10:43:24;21.23;;;13.13;;
13204;SDS011;6667;52.634;9.226;2023-04-16T10:45:53;20.67;;;13.87;;
13204;SDS011;6667;52.634;9.226;2023-04-16T10:48:22;19.77;;;13.63;;
13204;SDS011;6667;52.634;9.226;2023-04-16T10:50:52;24.10;;;14.57;;
13204;SDS011;6667;52.634;9.226;2023-04-16T10:53:22;21.90;;;14.70;;
13204;SDS011;6667;52.634;9.226;2023-04-16T10:55:56;20.57;;;13.80;;
13204;SDS011;6667;52.634;9.226;2023-04-16T10:58:35;22.20;;;13.30;;
13204;SDS011;6667;52.634;9.226;2023-04-16T11:01:06;20.67;;;13.03;;
13204;SDS011;6667;52.634;9.226;2023-04-16T11:03:39;21.60;;;13.70;;
13204;SDS011;6667;52.634;9.226;2023-04-16T11:06:11;21.60;;;13.73;;
13204;SDS011;6667;52.634;9.226;2023-04-16T11:08:40;20.67;;;12.80;;
13204;SDS011;6667;52.634;9.226;2023-04-16T11:11:10;18.67;;;13.00;;
13204;SDS011;6667;52.634;9.226;2023-04-16T11:13:37;22.47;;;13.33;;
13204;SDS011;6667;52.634;9.226;2023-04-16T11:16:09;20.67;;;13.13;;
13204;SDS011;6667;52.634;9.226;2023-04-16T11:18:37;19.37;;;12.13;;
13204;SDS011;6667;52.634;9.226;2023-04-16T11:21:06;20.10;;;13.07;;
13204;SDS011;6667;52.634;9.226;2023-04-16T11:23:45;22.00;;;12.97;;
13204;SDS011;6667;52.634;9.226;2023-04-16T11:26:23;18.97;;;13.37;;
13204;SDS011;6667;52.634;9.226;2023-04-16T11:28:51;22.33;;;14.40;;
13204;SDS011;6667;52.634;9.226;2023-04-16T11:31:21;21.43;;;14.80;;
13204;SDS011;6667;52.634;9.226;2023-04-16T11:33:48;22.87;;;14.23;;
13204;SDS011;6667;52.634;9.226;2023-04-16T11:36:16;21.27;;;13.50;;
13204;SDS011;6667;52.634;9.226;2023-04-16T11:38:43;20.73;;;13.33;;
13204;SDS011;6667;52.634;9.226;2023-04-16T11:41:18;22.40;;;13.70;;
13204;SDS011;6667;52.634;9.226;2023-04-16T11:43:47;22.53;;;13.40;;
13204;SDS011;6667;52.634;9.226;2023-04-16T11:46:14;18.53;;;12.83;;
13204;SDS011;6667;52.634;9.226;2023-04-16T11:48:46;21.20;;;13.80;;
13204;SDS011;6667;52.634;9.226;2023-04-16T11:51:14;19.13;;;13.00;;
13204;SDS011;6667;52.634;9.226;2023-04-16T11:53:46;18.50;;;11.87;;
13204;SDS011;6667;52.634;9.226;2023-04-16T11:56:14;16.13;;;11.77;;
13204;SDS011;6667;52.634;9.226;2023-04-16T11:58:41;15.67;;;10.70;;
13204;SDS011;6667;52.634;9.226;2023-04-16T12:01:09;15.40;;;10.67;;
13204;SDS011;6667;52.634;9.226;2023-04-16T12:03:39;18.03;;;10.83;;
13204;SDS011;6667;52.634;9.226;2023-04-16T12:06:11;13.50;;;9.90;;
13204;SDS011;6667;52.634;9.226;2023-04-16T12:08:39;17.03;;;11.37;;
13204;SDS011;6667;52.634;9.226;2023-04-16T12:11:08;17.07;;;11.17;;
13204;SDS011;6667;52.634;9.226;2023-04-16T12:13:35;15.27;;;9.93;;
13204;SDS011;6667;52.634;9.226;2023-04-16T12:16:11;15.53;;;10.37;;
13204;SDS011;6667;52.634;9.226;2023-04-16T12:18:57;18.57;;;11.40;;
13204;SDS011;6667;52.634;9.226;2023-04-16T12:21:36;16.20;;;11.23;;
13204;SDS011;6667;52.634;9.226;2023-04-16T12:24:04;15.30;;;10.67;;
13204;SDS011;6667;52.634;9.226;2023-04-16T12:26:36;16.50;;;10.93;;
13204;SDS011;6667;52.634;9.226;2023-04-16T12:29:17;19.83;;;11.47;;
13204;SDS011;6667;52.634;9.226;2023-04-16T12:31:46;16.03;;;11.43;;
13204;SDS011;6667;52.634;9.226;2023-04-16T12:34:13;17.97;;;11.07;;
13204;SDS011;6667;52.634;9.226;2023-04-16T12:36:42;16.27;;;11.43;;
13204;SDS011;6667;52.634;9.226;2023-04-16T12:39:11;16.93;;;10.93;;
13204;SDS011;6667;52.634;9.226;2023-04-16T12:41:40;16.27;;;11.17;;
13204;SDS011;6667;52.634;9.226;2023-04-16T12:44:09;22.40;;;12.60;;
13204;SDS011;6667;52.634;9.226;2023-04-16T12:46:38;17.93;;;12.07;;
13204;SDS011;6667;52.634;9.226;2023-04-16T12:49:05;23.83;;;13.57;;
13204;SDS011;6667;52.634;9.226;2023-04-16T12:51:33;17.80;;;12.40;;
13204;SDS011;6667;52.634;9.226;2023-04-16T12:54:05;17.43;;;12.53;;
13204;SDS011;6667;52.634;9.226;2023-04-16T12:56:33;19.20;;;12.73;;
13204;SDS011;6667;52.634;9.226;2023-04-16T12:59:01;18.37;;;11.70;;
13204;SDS011;6667;52.634;9.226;2023-04-16T13:01:28;19.50;;;12.47;;
13204;SDS011;6667;52.634;9.226;2023-04-16T13:03:56;19.73;;;12.60;;
13204;SDS011;6667;52.634;9.226;2023-04-16T13:06:23;17.77;;;12.00;;
13204;SDS011;6667;52.634;9.226;2023-04-16T13:08:50;18.33;;;11.57;;
13204;SDS011;6667;52.634;9.226;2023-04-16T13:11:19;21.23;;;14.00;;
13204;SDS011;6667;52.634;9.226;2023-04-16T13:13:46;20.13;;;13.80;;
13204;SDS011;6667;52.634;9.226;2023-04-16T13:16:14;18.80;;;12.47;;
13204;SDS011;6667;52.634;9.226;2023-04-16T13:18:41;20.47;;;13.90;;
13204;SDS011;6667;52.634;9.226;2023-04-16T13:21:08;21.33;;;12.77;;
13204;SDS011;6667;52.634;9.226;2023-04-16T13:23:36;23.63;;;14.77;;
13204;SDS011;6667;52.634;9.226;2023-04-16T13:26:03;23.30;;;13.17;;
13204;SDS011;6667;52.634;9.226;2023-04-16T13:28:32;20.50;;;13.13;;
13204;SDS011;6667;52.634;9.226;2023-04-16T13:30:59;16.97;;;11.80;;
13204;SDS011;6667;52.634;9.226;2023-04-16T13:33:26;22.50;;;13.07;;
13204;SDS011;6667;52.634;9.226;2023-04-16T13:35:53;22.33;;;13.23;;
13204;SDS011;6667;52.634;9.226;2023-04-16T13:38:20;19.43;;;12.30;;
13204;SDS011;6667;52.634;9.226;2023-04-16T13:40:46;20.90;;;13.23;;
13204;SDS011;6667;52.634;9.226;2023-04-16T13:43:13;17.93;;;11.60;;
13204;SDS011;6667;52.634;9.226;2023-04-16T13:45:44;19.90;;;12.83;;
13204;SDS011;6667;52.634;9.226;2023-04-16T13:48:11;20.00;;;11.90;;
13204;SDS011;6667;52.634;9.226;2023-04-16T13:50:38;16.63;;;11.43;;
13204;SDS011;6667;52.634;9.226;2023-04-16T13:53:04;18.20;;;12.00;;
13204;SDS011;6667;52.634;9.226;2023-04-16T13:55:31;19.47;;;13.13;;
13204;SDS011;6667;52.634;9.226;2023-04-16T13:57:57;17.23;;;11.23;;
13204;SDS011;6667;52.634;9.226;2023-04-16T14:00:24;16.87;;;11.63;;
13204;SDS011;6667;52.634;9.226;2023-04-16T14:02:52;21.53;;;12.53;;
13204;SDS011;6667;52.634;9.226;2023-04-16T14:05:19;19.87;;;12.53;;
13204;SDS011;6667;52.634;9.226;2023-04-16T14:07:47;18.83;;;11.80;;
13204;SDS011;6667;52.634;9.226;2023-04-16T14:10:14;18.17;;;11.70;;
13204;SDS011;6667;52.634;9.226;2023-04-16T14:12:41;20.70;;;11.80;;
13204;SDS011;6667;52.634;9.226;2023-04-16T14:15:08;18.20;;;11.90;;
13204;SDS011;6667;52.634;9.226;2023-04-16T14:17:35;17.53;;;11.83;;
13204;SDS011;6667;52.634;9.226;2023-04-16T14:20:03;29.07;;;13.87;;
13204;SDS011;6667;52.634;9.226;2023-04-16T14:22:30;18.23;;;12.80;;
13204;SDS011;6667;52.634;9.226;2023-04-16T14:24:58;18.13;;;13.00;;
13204;SDS011;6667;52.634;9.226;2023-04-16T14:27:24;18.00;;;12.87;;
13204;SDS011;6667;52.634;9.226;2023-04-16T14:29:51;19.47;;;12.70;;
13204;SDS011;6667;52.634;9.226;2023-04-16T14:32:18;18.67;;;11.93;;
13204;SDS011;6667;52.634;9.226;2023-04-16T14:34:45;17.83;;;12.50;;
13204;SDS011;6667;52.634;9.226;2023-04-16T14:37:13;17.93;;;11.50;;
13204;SDS011;6667;52.634;9.226;2023-04-16T14:39:40;19.63;;;11.77;;